Time;durP1;ratioP1;P1;durP2;ratioP2;P2;SDS_P1;SDS_P2;PMS_P1;PMS_P2;Temp;Humidity;BMP_temperature;BMP_pressure;BME280_temperature;BME280_humidity;BME280_pressure;Samples;Min_cycle;Max_cycle;Signal;HPM_P1;HPM_P2
2022/03/21 00:01:05;;;;;;;;;;;;;;;9.39;57.58;102467.09;5059199;28;20465;-79
2022/03/21 00:03:30;;;;;;;;;;;;;;;9.23;57.90;102460.88;5054876;28;19921;-79
2022/03/21 00:05:56;;;;;;;;;;;;;;;9.24;57.92;102470.41;5042270;28;19923;-79
2022/03/21 00:08:25;;;;;;;;;;;;;;;9.16;58.14;102472.00;5046919;28;19955;-82
2022/03/21 00:10:51;;;;;;;;;;;;;;;9.30;57.06;102477.38;5061700;28;19924;-82
2022/03/21 00:13:16;;;;;;;;;;;;;;;9.17;57.76;102491.91;5051165;28;20008;-81
2022/03/21 00:15:45;;;;;;;;;;;;;;;9.21;57.36;102487.63;5037888;28;20346;-78
2022/03/21 00:18:13;;;;;;;;;;;;;;;9.39;57.79;102486.97;5055515;28;20358;-81
2022/03/21 00:20:39;;;;;;;;;;;;;;;9.28;58.32;102482.53;5059411;28;20373;-81
2022/03/21 00:23:04;;;;;;;;;;;;;;;9.17;58.93;102480.66;5051483;28;19921;-82
2022/03/21 00:25:30;;;;;;;;;;;;;;;9.18;58.53;102485.00;5052932;28;19916;-81
2022/03/21 00:27:55;;;;;;;;;;;;;;;9.20;58.17;102481.56;5058278;28;19947;-79
2022/03/21 00:30:21;;;;;;;;;;;;;;;9.28;57.66;102473.88;5033266;28;19929;-79
2022/03/21 00:32:46;;;;;;;;;;;;;;;9.06;59.00;102471.88;5059741;28;19925;-82
2022/03/21 00:35:14;;;;;;;;;;;;;;;9.20;58.91;102475.50;5045851;28;19928;-83
2022/03/21 00:37:40;;;;;;;;;;;;;;;9.20;58.67;102471.19;5059694;28;19924;-82
2022/03/21 00:40:07;;;;;;;;;;;;;;;9.23;58.08;102475.53;5058597;28;19959;-75
2022/03/21 00:42:34;;;;;;;;;;;;;;;9.18;57.48;102475.50;5061919;28;19920;-75
2022/03/21 00:45:00;;;;;;;;;;;;;;;9.09;58.21;102482.28;5054943;28;19925;-75
2022/03/21 00:47:25;;;;;;;;;;;;;;;9.13;58.74;102486.66;5061080;28;19939;-76
2022/03/21 00:49:52;;;;;;;;;;;;;;;9.09;59.23;102480.59;5054480;28;19921;-76
2022/03/21 00:52:17;;;;;;;;;;;;;;;9.07;59.05;102476.19;5063158;28;20066;-82
2022/03/21 00:54:43;;;;;;;;;;;;;;;9.04;58.81;102482.22;5062662;28;20023;-83
2022/03/21 00:57:11;;;;;;;;;;;;;;;9.11;58.67;102481.47;5062480;28;19921;-76
2022/03/21 00:59:36;;;;;;;;;;;;;;;9.06;58.57;102480.53;5052558;28;20282;-75
2022/03/21 01:02:01;;;;;;;;;;;;;;;9.06;59.05;102484.84;5057666;28;19920;-76
2022/03/21 01:04:26;;;;;;;;;;;;;;;8.90;59.43;102478.59;5054900;28;19967;-76
2022/03/21 01:06:52;;;;;;;;;;;;;;;9.04;59.04;102486.56;5063712;28;19932;-78
2022/03/21 01:09:17;;;;;;;;;;;;;;;8.96;59.09;102483.84;5058804;28;19967;-80
2022/03/21 01:11:43;;;;;;;;;;;;;;;9.01;58.88;102489.13;5059147;28;19921;-81
2022/03/21 01:14:09;;;;;;;;;;;;;;;9.00;59.10;102489.94;5061114;28;19920;-81
2022/03/21 01:16:35;;;;;;;;;;;;;;;8.99;59.45;102499.44;5053777;28;19917;-76
2022/03/21 01:19:00;;;;;;;;;;;;;;;9.09;58.74;102490.94;5056478;28;20292;-75
2022/03/21 01:21:25;;;;;;;;;;;;;;;8.99;58.31;102490.78;5058235;28;20385;-75
2022/03/21 01:23:51;;;;;;;;;;;;;;;8.93;59.19;102498.50;5047632;28;19920;-76
2022/03/21 01:26:16;;;;;;;;;;;;;;;8.90;59.14;102490.66;5062734;28;19928;-83
2022/03/21 01:28:42;;;;;;;;;;;;;;;8.84;59.41;102482.81;5051101;28;20408;-81
2022/03/21 01:31:07;;;;;;;;;;;;;;;8.78;59.24;102493.97;5053017;28;19964;-81
2022/03/21 01:33:35;;;;;;;;;;;;;;;8.84;59.36;102488.88;5053700;28;19956;-75
2022/03/21 01:36:00;;;;;;;;;;;;;;;8.91;59.54;102488.13;5070042;28;20015;-75
2022/03/21 01:38:25;;;;;;;;;;;;;;;9.06;58.81;102485.72;5048555;28;20023;-75
2022/03/21 01:40:51;;;;;;;;;;;;;;;8.93;59.67;102489.00;5052144;28;19927;-78
2022/03/21 01:43:16;;;;;;;;;;;;;;;8.99;59.07;102493.38;5052830;28;19924;-79
2022/03/21 01:45:41;;;;;;;;;;;;;;;9.05;58.82;102486.56;5053962;28;20378;-79
2022/03/21 01:48:07;;;;;;;;;;;;;;;8.96;58.81;102490.75;5057280;28;19921;-76
2022/03/21 01:50:33;;;;;;;;;;;;;;;8.84;59.64;102493.19;5058464;28;20033;-83
2022/03/21 01:55:44;;;;;;;;;;;;;;;8.74;59.58;102493.06;5052002;28;19958;-80
2022/03/21 01:58:11;;;;;;;;;;;;;;;8.75;59.92;102493.94;5051766;28;19925;-79
2022/03/21 02:00:37;;;;;;;;;;;;;;;8.71;59.70;102490.41;5050837;28;20035;-83
2022/03/21 02:03:03;;;;;;;;;;;;;;;8.59;59.38;102494.56;5051244;28;19921;-82
2022/03/21 02:05:28;;;;;;;;;;;;;;;8.39;60.19;102495.97;5058256;28;19928;-79
2022/03/21 02:07:53;;;;;;;;;;;;;;;8.57;59.95;102494.53;5053857;28;19925;-79
2022/03/21 02:10:19;;;;;;;;;;;;;;;8.60;60.12;102493.72;5054111;28;20389;-75
2022/03/21 02:12:45;;;;;;;;;;;;;;;8.57;59.78;102489.34;5066182;28;20004;-79
2022/03/21 02:15:10;;;;;;;;;;;;;;;8.68;59.27;102490.38;5051092;28;19964;-76
2022/03/21 02:17:38;;;;;;;;;;;;;;;8.54;59.73;102496.22;5054687;28;19920;-80
2022/03/21 02:20:04;;;;;;;;;;;;;;;8.53;59.78;102497.06;5035731;28;20042;-75
2022/03/21 02:22:29;;;;;;;;;;;;;;;8.67;59.48;102487.78;5058242;28;20011;-81
2022/03/21 02:25:00;;;;;;;;;;;;;;;8.75;58.82;102489.63;5058200;28;19916;-79
2022/03/21 02:27:28;;;;;;;;;;;;;;;8.67;59.62;102488.66;5061632;28;20786;-82
2022/03/21 02:29:55;;;;;;;;;;;;;;;8.84;59.32;102488.88;5051506;28;19920;-79
2022/03/21 02:32:21;;;;;;;;;;;;;;;8.76;59.22;102488.78;5060274;28;19924;-75
2022/03/21 02:34:47;;;;;;;;;;;;;;;8.64;59.57;102492.91;5051259;28;20425;-81
2022/03/21 02:37:15;;;;;;;;;;;;;;;8.73;59.47;102490.47;5045192;28;19921;-75
2022/03/21 02:39:42;;;;;;;;;;;;;;;8.67;59.27;102492.97;5061033;28;19920;-76
2022/03/21 02:42:08;;;;;;;;;;;;;;;8.70;59.08;102491.28;5055356;28;19921;-76
2022/03/21 02:44:34;;;;;;;;;;;;;;;8.62;59.39;102487.69;5054492;28;20095;-83
2022/03/21 02:46:59;;;;;;;;;;;;;;;8.71;59.06;102492.16;5045034;28;20012;-79
2022/03/21 02:49:27;;;;;;;;;;;;;;;8.75;59.67;102493.94;5054166;28;19921;-76
2022/03/21 02:51:52;;;;;;;;;;;;;;;8.64;59.92;102485.16;5059940;28;20279;-83
2022/03/21 02:54:21;;;;;;;;;;;;;;;8.65;59.58;102482.56;5055735;28;19970;-76
2022/03/21 02:56:46;;;;;;;;;;;;;;;8.61;59.37;102480.78;5056508;28;19924;-83
2022/03/21 02:59:12;;;;;;;;;;;;;;;8.68;59.51;102485.19;5039813;28;19929;-82
2022/03/21 03:01:37;;;;;;;;;;;;;;;8.71;59.65;102482.66;5050488;28;19936;-83
2022/03/21 03:04:03;;;;;;;;;;;;;;;8.75;59.44;102484.44;5049979;28;19917;-83
2022/03/21 03:06:28;;;;;;;;;;;;;;;8.66;60.00;102479.13;5053852;28;19921;-83
2022/03/21 03:08:54;;;;;;;;;;;;;;;8.63;60.09;102478.22;5057258;28;19928;-80
2022/03/21 03:11:19;;;;;;;;;;;;;;;8.54;59.90;102484.13;5048328;28;20015;-79
2022/03/21 03:13:45;;;;;;;;;;;;;;;8.57;60.06;102489.34;5058579;28;20012;-82
2022/03/21 03:16:10;;;;;;;;;;;;;;;8.59;60.68;102492.84;5036384;28;20340;-75
2022/03/21 03:18:35;;;;;;;;;;;;;;;8.69;60.31;102486.94;5063710;28;19920;-75
2022/03/21 03:21:01;;;;;;;;;;;;;;;8.59;60.42;102484.22;5049304;28;19916;-75
2022/03/21 03:23:27;;;;;;;;;;;;;;;8.58;60.84;102490.25;5056653;28;19932;-76
2022/03/21 03:25:57;;;;;;;;;;;;;;;8.61;59.96;102493.75;5048042;28;19998;-75
2022/03/21 03:28:23;;;;;;;;;;;;;;;8.66;59.67;102486.03;5040494;28;19916;-82
2022/03/21 03:30:48;;;;;;;;;;;;;;;8.54;60.35;102486.72;5033358;28;19920;-83
2022/03/21 03:33:13;;;;;;;;;;;;;;;8.70;60.48;102485.22;5055340;28;19920;-82
2022/03/21 03:35:38;;;;;;;;;;;;;;;8.66;60.34;102489.50;5047175;28;20352;-76
2022/03/21 03:38:04;;;;;;;;;;;;;;;8.66;59.94;102498.97;5054049;28;19924;-76
2022/03/21 03:40:29;;;;;;;;;;;;;;;8.58;59.89;102505.78;5060307;28;19916;-81
2022/03/21 03:42:54;;;;;;;;;;;;;;;8.72;60.09;102507.72;5051201;28;19913;-79
2022/03/21 03:45:20;;;;;;;;;;;;;;;8.68;59.13;102502.47;5055438;28;20016;-79
2022/03/21 03:47:45;;;;;;;;;;;;;;;8.57;59.62;102506.63;5051600;28;20469;-79
2022/03/21 03:50:10;;;;;;;;;;;;;;;8.48;60.20;102503.88;5048592;28;19921;-81
2022/03/21 03:52:36;;;;;;;;;;;;;;;8.40;60.10;102501.19;5030781;28;19932;-81
2022/03/21 03:55:01;;;;;;;;;;;;;;;8.35;60.64;102496.78;5022708;28;19916;-79
2022/03/21 03:57:26;;;;;;;;;;;;;;;8.49;59.84;102501.34;5051917;28;19924;-81
2022/03/21 03:59:52;;;;;;;;;;;;;;;8.48;60.01;102509.94;5055491;28;20879;-75
2022/03/21 04:02:17;;;;;;;;;;;;;;;8.37;60.27;102510.63;5041344;28;20027;-75
2022/03/21 04:04:42;;;;;;;;;;;;;;;8.45;60.45;102514.19;5043285;28;19921;-81
2022/03/21 04:07:08;;;;;;;;;;;;;;;8.31;60.62;102513.97;5049763;28;19920;-81
2022/03/21 04:09:34;;;;;;;;;;;;;;;8.33;60.34;102517.47;5046050;28;19925;-75
2022/03/21 04:11:59;;;;;;;;;;;;;;;8.40;60.10;102516.72;5053640;28;19933;-75
2022/03/21 04:14:25;;;;;;;;;;;;;;;8.42;59.80;102508.97;5055553;28;19975;-75
2022/03/21 04:16:50;;;;;;;;;;;;;;;8.41;59.50;102515.03;5056496;28;20304;-75
2022/03/21 04:19:15;;;;;;;;;;;;;;;8.15;60.08;102522.31;5045452;28;19967;-75
2022/03/21 04:21:41;;;;;;;;;;;;;;;8.22;59.44;102519.88;5048525;28;20400;-79
2022/03/21 04:24:06;;;;;;;;;;;;;;;8.10;60.26;102524.84;5049464;28;20023;-81
2022/03/21 04:26:32;;;;;;;;;;;;;;;7.94;60.28;102527.13;5050650;28;20462;-79
2022/03/21 04:28:58;;;;;;;;;;;;;;;8.01;60.37;102532.44;5052342;28;19927;-81
2022/03/21 04:31:23;;;;;;;;;;;;;;;8.08;60.61;102528.25;5045118;28;20833;-82
2022/03/21 04:33:49;;;;;;;;;;;;;;;7.89;60.21;102533.94;5056263;28;19909;-76
2022/03/21 04:36:14;;;;;;;;;;;;;;;7.88;60.66;102535.63;5054375;28;20301;-82
2022/03/21 04:38:39;;;;;;;;;;;;;;;7.92;59.92;102532.28;5050471;28;19924;-80
2022/03/21 04:41:06;;;;;;;;;;;;;;;8.16;59.99;102531.81;5054215;28;20110;-81
2022/03/21 04:43:32;;;;;;;;;;;;;;;8.05;59.96;102530.78;5054503;28;19928;-76
2022/03/21 04:45:57;;;;;;;;;;;;;;;7.97;60.34;102545.31;5051221;28;19917;-75
2022/03/21 04:48:23;;;;;;;;;;;;;;;7.99;60.42;102538.44;5054139;28;19924;-82
2022/03/21 04:50:48;;;;;;;;;;;;;;;7.91;60.08;102537.44;5051052;28;20029;-82
2022/03/21 04:53:14;;;;;;;;;;;;;;;8.07;60.18;102540.31;5043658;28;19921;-79
2022/03/21 04:55:40;;;;;;;;;;;;;;;8.13;59.98;102534.38;5045535;28;19932;-79
2022/03/21 04:58:05;;;;;;;;;;;;;;;8.02;60.04;102541.06;5053305;28;19971;-80
2022/03/21 05:00:30;;;;;;;;;;;;;;;8.15;59.62;102535.25;5047174;28;20418;-81
2022/03/21 05:02:56;;;;;;;;;;;;;;;8.04;59.36;102539.38;5051114;28;19929;-81
2022/03/21 05:05:21;;;;;;;;;;;;;;;7.87;59.95;102539.09;5053531;28;20012;-79
2022/03/21 05:07:46;;;;;;;;;;;;;;;7.97;59.50;102537.53;5022304;28;19952;-80
2022/03/21 05:10:14;;;;;;;;;;;;;;;7.84;59.70;102548.50;5047748;28;19971;-81
2022/03/21 05:12:40;;;;;;;;;;;;;;;8.03;59.96;102546.25;5050496;28;19952;-81
2022/03/21 05:15:07;;;;;;;;;;;;;;;8.04;59.52;102549.72;5055416;28;19948;-81
2022/03/21 05:17:33;;;;;;;;;;;;;;;7.93;59.67;102546.09;5054169;28;19928;-80
2022/03/21 05:19:58;;;;;;;;;;;;;;;7.57;61.01;102548.84;5060387;28;19920;-80
2022/03/21 05:22:24;;;;;;;;;;;;;;;7.61;60.77;102554.09;5046733;28;20365;-82
2022/03/21 05:36:05;;;;;;;;;;;;;;;7.73;60.62;102565.56;5059474;28;19970;-83
2022/03/21 05:38:31;;;;;;;;;;;;;;;7.62;60.58;102568.78;5051729;28;20289;-75
2022/03/21 05:40:59;;;;;;;;;;;;;;;7.49;60.33;102564.22;5043554;28;19920;-75
2022/03/21 05:43:25;;;;;;;;;;;;;;;7.50;61.23;102576.28;5040465;28;20505;-82
2022/03/21 05:45:52;;;;;;;;;;;;;;;7.34;60.70;102568.22;5049787;28;19920;-83
2022/03/21 05:51:01;;;;;;;;;;;;;;;7.58;60.11;102574.72;5062981;28;19947;-75
2022/03/21 05:53:26;;;;;;;;;;;;;;;7.65;60.10;102568.84;5049789;28;20382;-76
2022/03/21 05:55:51;;;;;;;;;;;;;;;7.47;61.09;102578.81;5059092;28;19921;-83
2022/03/21 05:58:17;;;;;;;;;;;;;;;7.56;60.90;102584.19;5063033;28;19927;-77
2022/03/21 06:00:42;;;;;;;;;;;;;;;7.54;61.05;102582.41;5039840;28;19916;-80
2022/03/21 06:03:09;;;;;;;;;;;;;;;7.70;59.92;102576.72;5053371;28;19928;-81
2022/03/21 06:05:35;;;;;;;;;;;;;;;7.54;60.25;102578.13;5033605;28;20025;-80
2022/03/21 06:08:00;;;;;;;;;;;;;;;7.76;60.49;102587.16;5049518;28;19928;-80
2022/03/21 06:10:25;;;;;;;;;;;;;;;7.68;59.95;102592.19;5060310;28;19921;-80
2022/03/21 06:12:51;;;;;;;;;;;;;;;7.53;60.95;102589.28;5048701;28;20455;-82
2022/03/21 06:15:16;;;;;;;;;;;;;;;7.54;60.73;102591.03;5052907;28;19925;-75
2022/03/21 06:17:43;;;;;;;;;;;;;;;7.56;61.13;102597.09;5045337;28;20023;-75
2022/03/21 06:20:09;;;;;;;;;;;;;;;7.63;60.63;102595.53;5052795;28;19921;-80
2022/03/21 06:22:35;;;;;;;;;;;;;;;7.68;60.41;102604.25;5048261;28;20073;-82
2022/03/21 06:25:00;;;;;;;;;;;;;;;7.74;59.92;102600.91;5045545;28;20426;-83
2022/03/21 06:27:25;;;;;;;;;;;;;;;7.58;61.35;102603.19;5049559;28;19933;-82
2022/03/21 06:29:51;;;;;;;;;;;;;;;7.60;61.28;102609.28;5048152;28;19935;-75
2022/03/21 06:32:16;;;;;;;;;;;;;;;7.78;60.75;102611.34;5051942;28;19987;-82
2022/03/21 06:34:41;;;;;;;;;;;;;;;7.62;60.93;102614.47;5032708;28;19921;-82
2022/03/21 06:37:08;;;;;;;;;;;;;;;7.86;60.72;102624.44;5052566;28;20393;-75
2022/03/21 06:39:33;;;;;;;;;;;;;;;7.72;60.89;102624.16;5033283;28;20349;-81
2022/03/21 06:41:59;;;;;;;;;;;;;;;7.71;60.53;102625.00;5052546;28;20007;-83
2022/03/21 06:44:24;;;;;;;;;;;;;;;7.67;61.27;102628.38;5049653;28;19964;-80
2022/03/21 06:46:49;;;;;;;;;;;;;;;7.68;61.14;102630.09;5053539;28;19924;-75
2022/03/21 06:49:15;;;;;;;;;;;;;;;7.83;60.60;102635.59;5061365;28;19927;-82
2022/03/21 06:51:40;;;;;;;;;;;;;;;7.70;61.12;102634.47;5057204;28;19916;-81
2022/03/21 06:54:05;;;;;;;;;;;;;;;7.76;60.37;102638.88;5056876;28;19955;-76
2022/03/21 06:56:31;;;;;;;;;;;;;;;7.74;60.49;102643.16;5055703;28;19920;-83
2022/03/21 06:58:56;;;;;;;;;;;;;;;7.79;61.20;102646.72;5061687;28;19928;-82
2022/03/21 07:01:21;;;;;;;;;;;;;;;7.92;60.31;102640.06;5054941;28;19921;-82
2022/03/21 07:03:47;;;;;;;;;;;;;;;7.78;61.08;102650.16;5058733;28;19923;-81
2022/03/21 07:06:12;;;;;;;;;;;;;;;8.00;61.08;102638.53;5053562;28;19921;-80
2022/03/21 07:08:38;;;;;;;;;;;;;;;8.02;60.56;102653.25;5050870;28;20405;-79
2022/03/21 07:11:03;;;;;;;;;;;;;;;7.99;61.35;102650.59;5050641;28;20402;-75
2022/03/21 07:13:29;;;;;;;;;;;;;;;8.19;59.55;102646.66;5052110;28;19944;-79
2022/03/21 07:15:55;;;;;;;;;;;;;;;8.18;58.77;102644.91;5049309;28;19916;-79
2022/03/21 07:18:20;;;;;;;;;;;;;;;8.14;57.99;102640.53;5047262;28;20020;-79
2022/03/21 07:20:46;;;;;;;;;;;;;;;8.22;57.48;102638.94;5045632;28;19921;-79
2022/03/21 07:23:11;;;;;;;;;;;;;;;8.31;56.89;102645.13;5069904;28;19944;-79
2022/03/21 07:25:36;;;;;;;;;;;;;;;8.27;56.80;102638.19;5047439;28;19931;-82
2022/03/21 07:28:01;;;;;;;;;;;;;;;8.32;57.12;102646.88;5063371;28;20593;-81
2022/03/21 07:30:27;;;;;;;;;;;;;;;8.34;55.20;102645.22;5055007;28;19921;-80
2022/03/21 07:32:52;;;;;;;;;;;;;;;8.36;56.15;102654.75;5059429;28;19917;-81
2022/03/21 07:35:18;;;;;;;;;;;;;;;8.43;55.92;102664.38;5049966;28;20063;-80
2022/03/21 07:37:47;;;;;;;;;;;;;;;8.39;54.83;102656.53;5051294;28;20008;-75
2022/03/21 07:40:13;;;;;;;;;;;;;;;8.38;55.37;102662.56;5050691;28;19917;-82
2022/03/21 07:42:41;;;;;;;;;;;;;;;8.50;54.30;102663.66;5047215;28;19921;-75
2022/03/21 07:47:52;;;;;;;;;;;;;;;8.38;54.57;102668.63;5048311;28;19939;-76
2022/03/21 07:50:18;;;;;;;;;;;;;;;8.46;53.83;102666.16;5051717;28;19921;-75
2022/03/21 07:52:43;;;;;;;;;;;;;;;8.52;53.10;102667.16;5045779;28;19927;-75
2022/03/21 07:55:11;;;;;;;;;;;;;;;8.57;53.25;102668.09;5054695;28;19916;-80
2022/03/21 07:57:37;;;;;;;;;;;;;;;8.70;52.16;102672.66;5051881;28;19932;-76
2022/03/21 08:00:03;;;;;;;;;;;;;;;8.70;51.93;102679.53;5044673;28;19921;-76
2022/03/21 08:02:28;;;;;;;;;;;;;;;8.75;52.48;102670.13;5057869;28;19946;-76
2022/03/21 08:04:53;;;;;;;;;;;;;;;8.83;51.53;102671.09;5047439;28;19920;-81
2022/03/21 08:07:19;;;;;;;;;;;;;;;8.76;52.49;102667.56;5055194;28;19932;-81
2022/03/21 08:09:46;;;;;;;;;;;;;;;8.76;52.01;102670.16;5028542;28;19936;-81
2022/03/21 08:12:12;;;;;;;;;;;;;;;8.84;50.75;102672.88;5032674;28;20504;-76
2022/03/21 08:14:40;;;;;;;;;;;;;;;8.89;50.85;102668.63;5045482;28;19928;-79
2022/03/21 08:17:06;;;;;;;;;;;;;;;8.89;51.23;102675.56;5045763;28;19920;-79
2022/03/21 08:19:31;;;;;;;;;;;;;;;9.06;50.65;102668.91;5042212;28;20297;-79
2022/03/21 08:21:57;;;;;;;;;;;;;;;9.07;51.41;102673.22;5064222;28;19920;-79
2022/03/21 08:24:22;;;;;;;;;;;;;;;9.00;52.81;102676.59;5047605;28;19924;-81
2022/03/21 08:26:48;;;;;;;;;;;;;;;9.00;52.67;102676.59;5051247;28;19925;-81
2022/03/21 08:29:15;;;;;;;;;;;;;;;9.01;50.56;102679.19;5035891;28;20389;-81
2022/03/21 08:31:40;;;;;;;;;;;;;;;9.05;50.64;102678.41;5028945;28;20282;-81
2022/03/21 08:34:05;;;;;;;;;;;;;;;9.13;51.53;102683.69;5052457;28;19931;-81
2022/03/21 08:36:31;;;;;;;;;;;;;;;9.13;50.83;102673.31;5051916;28;19917;-80
2022/03/21 08:38:57;;;;;;;;;;;;;;;9.16;51.31;102681.13;5048262;28;19924;-81
2022/03/21 08:41:22;;;;;;;;;;;;;;;9.34;49.33;102677.09;5029346;28;20457;-82
2022/03/21 08:43:48;;;;;;;;;;;;;;;9.48;49.01;102673.84;5053793;28;20454;-79
2022/03/21 08:46:13;;;;;;;;;;;;;;;9.52;48.71;102671.31;5049345;28;20342;-76
2022/03/21 08:51:23;;;;;;;;;;;;;;;9.74;49.51;102669.88;5037701;28;19932;-82
2022/03/21 08:53:48;;;;;;;;;;;;;;;9.70;47.60;102665.47;5055995;28;19928;-79
2022/03/21 08:56:13;;;;;;;;;;;;;;;9.78;48.51;102658.69;5043294;28;19916;-79
2022/03/21 08:58:39;;;;;;;;;;;;;;;9.85;48.06;102656.16;5055265;28;19920;-81
2022/03/21 09:01:05;;;;;;;;;;;;;;;9.93;46.19;102658.03;5061118;28;20521;-82
2022/03/21 09:03:30;;;;;;;;;;;;;;;9.89;47.36;102657.09;5048886;28;19920;-82
2022/03/21 09:05:55;;;;;;;;;;;;;;;9.75;47.66;102667.28;5056916;28;19921;-81
2022/03/21 09:08:21;;;;;;;;;;;;;;;9.66;48.70;102661.13;5046234;28;19925;-81
2022/03/21 09:10:48;;;;;;;;;;;;;;;10.00;51.89;102671.09;5035179;28;19921;-81
2022/03/21 09:13:13;;;;;;;;;;;;;;;10.02;46.19;102664.19;5071567;28;19958;-80
2022/03/21 09:15:38;;;;;;;;;;;;;;;10.04;46.18;102674.59;5057462;28;20501;-82
2022/03/21 09:18:04;;;;;;;;;;;;;;;10.00;45.39;102662.41;5059343;28;19920;-82
2022/03/21 09:20:30;;;;;;;;;;;;;;;9.88;45.91;102668.31;5047278;28;19936;-76
2022/03/21 09:22:57;;;;;;;;;;;;;;;10.03;46.36;102670.25;5047519;28;19925;-75
2022/03/21 09:25:22;;;;;;;;;;;;;;;10.29;49.65;102666.19;5052760;28;19920;-79
2022/03/21 09:27:47;;;;;;;;;;;;;;;10.35;47.14;102661.94;5055348;28;19928;-76
2022/03/21 09:30:13;;;;;;;;;;;;;;;10.44;50.21;102658.56;5051068;28;19987;-82
2022/03/21 09:32:39;;;;;;;;;;;;;;;10.47;49.33;102656.88;5051061;28;19956;-81
2022/03/21 09:35:05;;;;;;;;;;;;;;;10.67;47.27;102654.44;5062188;28;19925;-81
2022/03/21 09:37:31;;;;;;;;;;;;;;;10.58;46.62;102657.00;5053038;28;20015;-80
2022/03/21 09:39:57;;;;;;;;;;;;;;;10.65;46.99;102663.09;5055250;28;20381;-81
2022/03/21 09:42:22;;;;;;;;;;;;;;;10.76;50.11;102653.69;5049064;28;19974;-81
2022/03/21 09:44:52;;;;;;;;;;;;;;;10.65;48.65;102653.56;5053929;28;20393;-81
2022/03/21 09:50:04;;;;;;;;;;;;;;;10.97;49.36;102654.69;5042059;28;19979;-82
2022/03/21 09:52:30;;;;;;;;;;;;;;;11.00;48.74;102646.91;5052483;28;19921;-82
2022/03/21 09:54:55;;;;;;;;;;;;;;;10.96;47.13;102652.97;5063951;28;19925;-82
2022/03/21 09:57:26;;;;;;;;;;;;;;;10.80;44.97;102645.91;5051623;28;19967;-82
2022/03/21 09:59:51;;;;;;;;;;;;;;;10.79;48.25;102649.34;5047825;28;19921;-82
2022/03/21 10:02:18;;;;;;;;;;;;;;;10.90;49.38;102657.25;5049536;28;19925;-82
2022/03/21 10:04:44;;;;;;;;;;;;;;;10.79;47.81;102656.31;5051769;28;20441;-82
2022/03/21 10:07:10;;;;;;;;;;;;;;;10.94;47.61;102651.19;5035495;28;19924;-81
2022/03/21 10:09:36;;;;;;;;;;;;;;;10.94;48.43;102649.47;5049405;28;20027;-76
2022/03/21 10:12:03;;;;;;;;;;;;;;;10.87;50.08;102647.69;5051875;28;19928;-76
2022/03/21 10:14:32;;;;;;;;;;;;;;;10.89;48.44;102645.09;5046482;28;19927;-82
2022/03/21 10:17:07;;;;;;;;;;;;;;;10.95;50.13;102645.13;5044920;28;19932;-82
2022/03/21 10:19:48;;;;;;;;;;;;;;;10.90;47.01;102639.91;5048710;28;19920;-82
2022/03/21 10:22:15;;;;;;;;;;;;;;;11.09;49.68;102642.66;5050999;28;19955;-81
2022/03/21 10:24:45;;;;;;;;;;;;;;;11.12;49.93;102640.06;5058371;28;19936;-75
2022/03/21 10:27:28;;;;;;;;;;;;;;;11.07;48.82;102640.03;5055806;28;19974;-76
2022/03/21 10:29:59;;;;;;;;;;;;;;;10.93;49.67;102636.47;5057248;28;19921;-76
2022/03/21 10:32:35;;;;;;;;;;;;;;;11.09;49.32;102640.91;5047950;28;19924;-82
2022/03/21 10:35:03;;;;;;;;;;;;;;;11.11;50.40;102633.13;5055268;28;19921;-82
2022/03/21 10:37:42;;;;;;;;;;;;;;;11.10;49.12;102631.38;5036469;28;19917;-82
2022/03/21 10:40:17;;;;;;;;;;;;;;;11.05;48.74;102631.34;5032925;28;20323;-80
2022/03/21 10:42:55;;;;;;;;;;;;;;;11.11;50.58;102639.19;5046133;28;19920;-79
2022/03/21 10:45:20;;;;;;;;;;;;;;;11.07;48.55;102632.22;5062601;28;20338;-80
2022/03/21 10:47:53;;;;;;;;;;;;;;;11.08;48.28;102627.91;5048162;28;19931;-75
2022/03/21 10:50:31;;;;;;;;;;;;;;;11.18;50.92;102627.06;5054905;28;19923;-82
2022/03/21 10:53:09;;;;;;;;;;;;;;;11.15;49.79;102625.34;5045184;28;19968;-82
2022/03/21 10:55:35;;;;;;;;;;;;;;;11.24;50.69;102633.19;5042104;28;20504;-76
2022/03/21 10:58:01;;;;;;;;;;;;;;;11.32;50.56;102620.28;5064579;28;19917;-75
2022/03/21 11:00:27;;;;;;;;;;;;;;;11.30;50.21;102629.78;5047614;28;20334;-80
2022/03/21 11:03:15;;;;;;;;;;;;;;;11.28;49.05;102621.13;5057903;28;19930;-81
2022/03/21 11:05:50;;;;;;;;;;;;;;;11.34;49.42;102621.16;5049644;28;20407;-82
2022/03/21 11:08:17;;;;;;;;;;;;;;;11.37;50.19;102618.56;5033997;28;19925;-82
2022/03/21 11:10:43;;;;;;;;;;;;;;;11.33;49.83;102611.59;5054824;28;19921;-82
2022/03/21 11:13:09;;;;;;;;;;;;;;;11.33;50.37;102622.88;5049652;28;20007;-80
2022/03/21 11:15:36;;;;;;;;;;;;;;;11.34;50.16;102609.00;5044770;28;19978;-79
2022/03/21 11:18:02;;;;;;;;;;;;;;;11.34;50.39;102608.13;5026872;28;20259;-79
2022/03/21 11:20:31;;;;;;;;;;;;;;;11.33;50.04;102606.38;5050802;28;19924;-76
2022/03/21 11:23:00;;;;;;;;;;;;;;;11.34;50.85;102610.75;5042032;28;19920;-76
2022/03/21 11:25:29;;;;;;;;;;;;;;;11.34;50.69;102603.81;5045588;28;19917;-76
2022/03/21 11:28:17;;;;;;;;;;;;;;;11.32;49.80;102595.13;5050324;28;20447;-81
2022/03/21 11:30:55;;;;;;;;;;;;;;;11.35;51.10;102602.97;5052085;28;20289;-81
2022/03/21 11:33:39;;;;;;;;;;;;;;;11.32;50.74;102596.88;5044270;28;20389;-81
2022/03/21 11:36:06;;;;;;;;;;;;;;;11.34;50.93;102597.72;5049463;28;19928;-82
2022/03/21 11:38:54;;;;;;;;;;;;;;;11.34;50.87;102593.41;5048509;28;20385;-82
2022/03/21 11:41:24;;;;;;;;;;;;;;;11.35;51.38;102596.88;5054189;28;20370;-82
2022/03/21 11:44:08;;;;;;;;;;;;;;;11.37;50.98;102596.03;5046991;28;19921;-81
2022/03/21 11:46:34;;;;;;;;;;;;;;;11.34;51.09;102596.00;5051714;28;19931;-76
2022/03/21 11:49:01;;;;;;;;;;;;;;;11.40;51.19;102587.34;5055273;28;19920;-75
2022/03/21 11:51:29;;;;;;;;;;;;;;;11.35;51.07;102584.75;5056890;28;19925;-79
2022/03/21 11:53:55;;;;;;;;;;;;;;;11.43;51.04;102584.75;5047278;28;19921;-79
2022/03/21 11:56:39;;;;;;;;;;;;;;;11.46;51.93;102585.66;5043300;28;19927;-75
2022/03/21 11:59:04;;;;;;;;;;;;;;;11.52;50.72;102580.47;5049058;28;19932;-80
2022/03/21 12:01:30;;;;;;;;;;;;;;;11.62;51.02;102577.91;5049399;28;20289;-81
2022/03/21 12:04:15;;;;;;;;;;;;;;;11.64;50.71;102579.66;5060659;28;19921;-75
2022/03/21 12:06:41;;;;;;;;;;;;;;;11.64;50.62;102581.38;5021656;28;20015;-76
2022/03/21 12:09:10;;;;;;;;;;;;;;;11.59;50.59;102576.16;5032340;28;20035;-76
2022/03/21 12:11:39;;;;;;;;;;;;;;;11.65;50.77;102572.72;5050813;28;19925;-75
2022/03/21 12:14:20;;;;;;;;;;;;;;;11.72;50.65;102564.91;5038723;28;19925;-80
2022/03/21 12:16:46;;;;;;;;;;;;;;;11.77;50.27;102564.94;5046399;28;20023;-79
2022/03/21 12:19:11;;;;;;;;;;;;;;;11.75;50.47;102564.03;5055923;28;20007;-76
2022/03/21 12:21:37;;;;;;;;;;;;;;;11.80;50.52;102562.34;5055201;28;20373;-76
2022/03/21 12:24:12;;;;;;;;;;;;;;;11.77;50.65;102563.19;5058504;28;19977;-76
2022/03/21 12:26:37;;;;;;;;;;;;;;;11.81;50.35;102554.53;5054021;28;19929;-80
2022/03/21 12:29:31;;;;;;;;;;;;;;;11.87;49.99;102548.47;5057402;28;19928;-80
2022/03/21 12:32:16;;;;;;;;;;;;;;;11.90;50.38;102538.91;5050601;28;20011;-78
2022/03/21 12:34:41;;;;;;;;;;;;;;;11.87;50.27;102536.31;5054994;28;19927;-76
2022/03/21 12:37:23;;;;;;;;;;;;;;;11.92;50.67;102538.91;5058930;28;19920;-75
2022/03/21 12:39:49;;;;;;;;;;;;;;;11.84;51.39;102545.84;5038351;28;19920;-75
2022/03/21 12:42:16;;;;;;;;;;;;;;;11.92;50.65;102533.69;5060836;28;19928;-76
2022/03/21 12:44:42;;;;;;;;;;;;;;;11.77;51.65;102536.31;5060547;28;19920;-78
2022/03/21 12:47:08;;;;;;;;;;;;;;;11.82;51.94;102534.56;5061664;28;20385;-79
2022/03/21 12:49:46;;;;;;;;;;;;;;;11.76;51.15;102532.81;5048770;28;20421;-79
2022/03/21 12:52:12;;;;;;;;;;;;;;;11.80;52.38;102531.94;5044569;28;20019;-75
2022/03/21 12:54:47;;;;;;;;;;;;;;;11.77;52.51;102531.09;5053056;28;20099;-81
2022/03/21 12:57:13;;;;;;;;;;;;;;;11.79;50.88;102529.34;5034337;28;19927;-81
2022/03/21 12:59:38;;;;;;;;;;;;;;;11.94;51.38;102519.84;5061497;28;19928;-81
2022/03/21 13:02:04;;;;;;;;;;;;;;;11.82;51.29;102516.34;5064395;28;20780;-81
2022/03/21 13:12:41;;;;;;;;;;;;;;;11.82;52.29;102521.56;5054348;28;19939;-81
2022/03/21 13:15:09;;;;;;;;;;;;;;;11.72;52.62;102522.38;5060294;28;19928;-81